createdAt,value
2016-06-09T00:00:29.142Z,23.23
2016-06-09T00:01:28.396Z,23.34
2016-06-09T00:02:28.367Z,23.23
2016-06-09T00:03:28.620Z,23.23
2016-06-09T00:04:28.358Z,23.25
2016-06-09T00:05:28.329Z,23.23
2016-06-09T00:06:28.317Z,23.22
2016-06-09T00:07:28.304Z,23.31
2016-06-09T00:08:28.339Z,23.31
2016-06-09T00:09:28.295Z,23.21
2016-06-09T00:10:28.267Z,23.25
2016-06-09T00:11:28.254Z,23.29
2016-06-09T00:12:28.241Z,23.21
2016-06-09T00:13:28.244Z,23.21
2016-06-09T00:14:28.231Z,23.23
2016-06-09T00:15:28.203Z,23.16
2016-06-09T00:16:28.394Z,23.14
2016-06-09T00:17:28.179Z,23.38
2016-06-09T00:18:28.993Z,23.26
2016-06-09T00:19:28.154Z,23.23
2016-06-09T00:20:28.141Z,23.35
2016-06-09T00:21:28.128Z,23.22
2016-06-09T00:22:28.116Z,23.22
2016-06-09T00:23:28.104Z,23.26
2016-06-09T00:24:28.387Z,23.22
2016-06-09T00:25:28.094Z,23.25
2016-06-09T00:26:27.926Z,23.22
2016-06-09T00:27:28.069Z,23.22
2016-06-09T00:28:28.041Z,23.23
2016-06-09T00:29:27.871Z,23.18
2016-06-09T00:30:28.016Z,23.29
2016-06-09T00:31:28.003Z,23.18
2016-06-09T00:32:28.397Z,23.22
2016-06-09T00:33:27.837Z,23.21
2016-06-09T00:34:27.981Z,23.23
2016-06-09T00:35:27.938Z,23.31
2016-06-09T00:36:27.940Z,23.19
2016-06-09T00:37:27.927Z,23.21
2016-06-09T00:38:27.916Z,23.22
2016-06-09T00:39:27.902Z,23.23
2016-06-09T00:40:27.890Z,23.16
2016-06-09T00:41:27.878Z,23.19
2016-06-09T00:42:27.881Z,23.14
2016-06-09T00:43:27.852Z,23.18
2016-06-09T00:44:27.840Z,23.18
2016-06-09T00:45:27.826Z,23.14
2016-06-09T00:46:27.815Z,23.16
2016-06-09T00:47:27.787Z,23.18
2016-06-09T00:48:27.899Z,23.19
2016-06-09T00:49:27.683Z,23.15
2016-06-09T00:50:27.764Z,23.14
2016-06-09T00:51:27.753Z,23.15
2016-06-09T00:52:27.723Z,23.22
2016-06-09T00:53:27.712Z,23.19
2016-06-09T00:54:27.699Z,23.31
2016-06-09T00:55:27.686Z,23.15
2016-06-09T00:56:27.689Z,23.18
2016-06-09T00:57:27.661Z,23.18
2016-06-09T00:58:27.664Z,23.18
2016-06-09T00:59:27.636Z,23.18
2016-06-09T01:00:27.483Z,23.14
2016-06-09T01:01:27.611Z,23.19
2016-06-09T01:02:27.614Z,23.19
2016-06-09T01:03:27.586Z,23.14
2016-06-09T01:04:28.354Z,23.16
2016-06-09T01:05:27.577Z,23.18
2016-06-09T01:06:27.563Z,23.12
2016-06-09T01:07:27.535Z,23.16
2016-06-09T01:08:27.522Z,23.15
2016-06-09T01:09:27.511Z,23.14
2016-06-09T01:10:27.498Z,23.15
2016-06-09T01:11:27.501Z,23.16
2016-06-09T01:12:27.473Z,23.19
2016-06-09T01:13:27.460Z,23.14
2016-06-09T01:14:27.448Z,23.18
2016-06-09T01:15:27.294Z,23.25
2016-06-09T01:16:27.422Z,23.16
2016-06-09T01:17:27.410Z,23.23
2016-06-09T01:18:27.398Z,23.18
2016-06-09T01:19:27.385Z,23.23
2016-06-09T01:20:27.372Z,23.22
2016-06-09T01:21:27.454Z,23.22
2016-06-09T01:22:27.363Z,23.23
2016-06-09T01:23:27.334Z,23.26
2016-06-09T01:24:27.322Z,23.32
2016-06-09T01:25:27.310Z,23.23
2016-06-09T01:26:27.297Z,23.23
2016-06-09T01:27:27.284Z,23.22
2016-06-09T01:28:27.288Z,23.19
2016-06-09T01:29:27.463Z,23.14
2016-06-09T01:30:27.247Z,23.21
2016-06-09T01:31:27.234Z,23.23
2016-06-09T01:32:27.221Z,23.18
2016-06-09T01:33:27.225Z,23.16
2016-06-09T01:34:27.196Z,23.09
2016-06-09T01:35:27.184Z,23.14
2016-06-09T01:36:27.016Z,23.18
2016-06-09T01:37:27.502Z,23.14
2016-06-09T01:38:27.147Z,23.19
2016-06-09T01:39:27.134Z,23.16
2016-06-09T01:40:27.121Z,23.15
2016-06-09T01:41:27.109Z,23.14
2016-06-09T01:42:27.096Z,23.15
2016-06-09T01:43:27.084Z,23.15
2016-06-09T01:44:27.071Z,23.16
2016-06-09T01:45:27.512Z,23.01
2016-06-09T01:46:27.046Z,23.07
2016-06-09T01:47:27.034Z,23.06
2016-06-09T01:48:26.959Z,23.14
2016-06-09T01:49:27.024Z,23.09
2016-06-09T01:50:26.996Z,23.18
2016-06-09T01:51:26.984Z,23.18
2016-06-09T01:52:26.971Z,23.16
2016-06-09T01:53:27.505Z,23.19
2016-06-09T01:54:26.945Z,23.18
2016-06-09T01:55:26.917Z,23.16
2016-06-09T01:56:26.905Z,23.19
2016-06-09T01:57:26.892Z,23.18
2016-06-09T01:58:26.895Z,23.14
2016-06-09T01:59:26.868Z,23.04
2016-06-09T02:00:26.854Z,23.12
2016-06-09T02:01:27.498Z,23.21
2016-06-09T02:02:26.674Z,23.03
2016-06-09T02:03:27.646Z,23.07
2016-06-09T02:04:26.820Z,23.11
2016-06-09T02:05:26.792Z,23.06
2016-06-09T02:06:26.795Z,23.07
2016-06-09T02:07:26.767Z,23.09
2016-06-09T02:08:26.754Z,23.04
2016-06-09T02:09:26.804Z,23.12
2016-06-09T02:10:26.729Z,23.12
2016-06-09T02:11:26.716Z,23.07
2016-06-09T02:12:26.704Z,23.09
2016-06-09T02:13:26.708Z,23.14
2016-06-09T02:14:26.694Z,23.07
2016-06-09T02:15:26.667Z,23.03
2016-06-09T02:16:26.670Z,23.09
2016-06-09T02:17:26.845Z,23.12
2016-06-09T02:18:26.628Z,23.06
2016-06-09T02:19:26.976Z,23.18
2016-06-09T02:20:26.619Z,23.18
2016-06-09T02:21:26.606Z,23.14
2016-06-09T02:22:26.579Z,23.14
2016-06-09T02:23:26.566Z,23.15
2016-06-09T02:24:26.553Z,23.16
2016-06-09T02:25:26.838Z,23.18
2016-06-09T02:26:26.528Z,23.18
2016-06-09T02:27:26.515Z,23.11
2016-06-09T02:28:26.363Z,23.14
2016-06-09T02:29:26.491Z,23.16
2016-06-09T02:30:26.479Z,23.09
2016-06-09T02:31:26.466Z,23.16
2016-06-09T02:32:26.297Z,23.15
2016-06-09T02:33:26.831Z,23.11
2016-06-09T02:34:26.553Z,23.14
2016-06-09T02:35:26.415Z,23.18
2016-06-09T02:36:26.247Z,23.18
2016-06-09T02:37:26.406Z,23.16
2016-06-09T02:38:26.379Z,23.12
2016-06-09T02:39:26.365Z,23.04
2016-06-09T02:40:26.462Z,23.06
2016-06-09T02:41:26.888Z,23.09
2016-06-09T02:42:26.312Z,23.06
2016-06-09T02:43:26.314Z,23.07
2016-06-09T02:44:26.303Z,23.06
2016-06-09T02:45:26.289Z,23.16
2016-06-09T02:46:26.278Z,23.14
2016-06-09T02:47:26.249Z,23.04
2016-06-09T02:48:26.298Z,23.06
2016-06-09T02:49:26.083Z,23.14
2016-06-09T02:50:26.211Z,23.11
2016-06-09T02:51:26.214Z,23.16
2016-06-09T02:52:26.202Z,23.12
2016-06-09T02:53:26.189Z,23.11
2016-06-09T02:54:26.161Z,23.11
2016-06-09T02:55:26.149Z,23.14
2016-06-09T02:56:26.448Z,23.11
2016-06-09T02:57:26.123Z,23.09
2016-06-09T02:58:26.111Z,23.16
2016-06-09T02:59:26.099Z,23.14
2016-06-09T03:00:26.116Z,23.18
2016-06-09T03:01:26.074Z,23.18
2016-06-09T03:02:26.061Z,23.04
2016-06-09T03:03:26.048Z,23.07
2016-06-09T03:04:27.145Z,23.07
2016-06-09T03:05:26.024Z,23.07
2016-06-09T03:06:26.026Z,23.12
2016-06-09T03:07:26.013Z,23.12
2016-06-09T03:08:25.986Z,23.09
2016-06-09T03:09:25.974Z,23.11
2016-06-09T03:10:25.960Z,23.12
2016-06-09T03:11:25.964Z,23.11
2016-06-09T03:12:26.545Z,23.18
2016-06-09T03:13:25.923Z,23.12
2016-06-09T03:14:25.909Z,23.14
2016-06-09T03:15:25.898Z,23.11
2016-06-09T03:16:25.885Z,23.07
2016-06-09T03:17:25.873Z,23.04
2016-06-09T03:18:25.860Z,23.14
2016-06-09T03:19:25.691Z,23.12
2016-06-09T03:20:26.538Z,23.16
2016-06-09T03:21:25.822Z,23.04
2016-06-09T03:22:25.809Z,23.09
2016-06-09T03:23:25.797Z,23.06
2016-06-09T03:24:25.784Z,23.12
2016-06-09T03:25:25.616Z,23.01
2016-06-09T03:26:25.760Z,23.14
2016-06-09T03:27:25.731Z,23.09
2016-06-09T03:28:25.860Z,23.15
2016-06-09T03:29:25.722Z,23.09
2016-06-09T03:30:25.709Z,23.14
2016-06-09T03:31:25.697Z,23.06
2016-06-09T03:32:25.670Z,23.07
2016-06-09T03:33:25.672Z,23.07
2016-06-09T03:34:26.190Z,23.15
2016-06-09T03:35:25.632Z,23.03
2016-06-09T03:36:25.822Z,23.09
2016-06-09T03:37:25.605Z,23.01
2016-06-09T03:38:25.609Z,23.03
2016-06-09T03:39:25.581Z,23.07
2016-06-09T03:40:25.569Z,22.99
2016-06-09T03:41:25.555Z,23.03
2016-06-09T03:42:25.543Z,23.07
2016-06-09T03:43:25.531Z,23
2016-06-09T03:44:25.831Z,23.11
2016-06-09T03:45:25.505Z,23
2016-06-09T03:46:25.352Z,23.14
2016-06-09T03:47:25.496Z,23
2016-06-09T03:48:25.155Z,22.99
2016-06-09T03:49:25.456Z,23.01
2016-06-09T03:50:25.458Z,23.11
2016-06-09T03:51:25.539Z,23.07
2016-06-09T03:52:25.809Z,23.15
2016-06-09T03:53:25.405Z,23.15
2016-06-09T03:54:25.392Z,23.12
2016-06-09T03:55:25.380Z,23.12
2016-06-09T03:56:25.368Z,23
2016-06-09T03:57:25.355Z,23.07
2016-06-09T03:58:25.342Z,22.99
2016-06-09T03:59:25.486Z,23.04
2016-06-09T04:00:25.317Z,23.01
2016-06-09T04:01:25.289Z,23.12
2016-06-09T04:02:25.293Z,23.03
2016-06-09T04:03:25.296Z,23.12
2016-06-09T04:04:25.298Z,23.09
2016-06-09T04:05:25.255Z,23.07
2016-06-09T04:06:25.242Z,23.11
2016-06-09T04:07:25.480Z,23.06
2016-06-09T04:08:25.216Z,23.03
2016-06-09T04:09:25.204Z,23.09
2016-06-09T04:10:25.176Z,23.07
2016-06-09T04:11:25.164Z,23.18
2016-06-09T04:12:25.167Z,23.12
2016-06-09T04:13:25.154Z,23.09
2016-06-09T04:14:25.141Z,23.07
2016-06-09T04:15:25.520Z,23.11
2016-06-09T04:16:25.117Z,23.09
2016-06-09T04:17:25.103Z,23.12
2016-06-09T04:18:25.075Z,23.07
2016-06-09T04:19:25.407Z,23.12
2016-06-09T04:20:24.892Z,23.03
2016-06-09T04:21:25.035Z,23.06
2016-06-09T04:22:25.037Z,23.18
2016-06-09T04:23:25.513Z,23.01
2016-06-09T04:24:24.997Z,23.12
2016-06-09T04:25:25.000Z,22.96
2016-06-09T04:26:24.972Z,22.99
2016-06-09T04:27:24.803Z,23.16
2016-06-09T04:28:24.947Z,23.01
2016-06-09T04:29:24.934Z,23.03
2016-06-09T04:30:24.923Z,23.04
2016-06-09T04:31:25.519Z,23.01
2016-06-09T04:32:24.897Z,23.01
2016-06-09T04:33:24.884Z,23.01
2016-06-09T04:34:25.641Z,23
2016-06-09T04:35:24.860Z,23.06
2016-06-09T04:36:24.846Z,22.99
2016-06-09T04:37:24.850Z,23.06
2016-06-09T04:38:24.822Z,22.96
2016-06-09T04:39:25.528Z,22.88
2016-06-09T04:40:24.796Z,22.94
2016-06-09T04:41:24.784Z,22.86
2016-06-09T04:42:24.615Z,22.86
2016-06-09T04:43:24.759Z,22.84
2016-06-09T04:44:24.747Z,22.91
2016-06-09T04:45:24.733Z,22.84
2016-06-09T04:46:24.721Z,22.84
2016-06-09T04:47:24.818Z,22.85
2016-06-09T04:48:24.696Z,22.84
2016-06-09T04:49:24.886Z,22.86
2016-06-09T04:50:24.656Z,22.89
2016-06-09T04:51:24.659Z,22.96
2016-06-09T04:52:24.646Z,23.01
2016-06-09T04:53:24.618Z,23
2016-06-09T04:54:24.652Z,22.88
2016-06-09T04:55:24.796Z,23.03
2016-06-09T04:56:24.580Z,23
2016-06-09T04:57:24.567Z,23.01
2016-06-09T04:58:24.556Z,23
2016-06-09T04:59:24.543Z,22.91
2016-06-09T05:00:24.545Z,22.89
2016-06-09T05:01:24.518Z,22.91
2016-06-09T05:02:24.505Z,22.85
2016-06-09T05:03:24.852Z,22.89
2016-06-09T05:04:25.183Z,22.88
2016-06-09T05:05:24.826Z,22.85
2016-06-09T05:06:24.455Z,22.86
2016-06-09T05:07:24.442Z,22.88
2016-06-09T05:08:24.429Z,22.85
2016-06-09T05:09:24.418Z,22.91
2016-06-09T05:10:24.404Z,22.88
2016-06-09T05:11:24.860Z,22.88
2016-06-09T05:12:24.380Z,22.82
2016-06-09T05:13:24.367Z,22.86
2016-06-09T05:14:24.354Z,22.86
2016-06-09T05:15:24.342Z,22.81
2016-06-09T05:16:24.173Z,22.86
2016-06-09T05:17:24.317Z,22.81
2016-06-09T05:18:24.304Z,22.82
2016-06-09T05:19:25.057Z,22.88
2016-06-09T05:20:24.919Z,22.84
2016-06-09T05:21:24.266Z,22.81
2016-06-09T05:22:24.254Z,22.84
2016-06-09T05:23:24.225Z,22.81
2016-06-09T05:24:24.228Z,22.88
2016-06-09T05:25:24.200Z,22.82
2016-06-09T05:26:24.204Z,22.85
2016-06-09T05:27:24.191Z,22.84
2016-06-09T05:28:24.023Z,22.81
2016-06-09T05:29:24.150Z,22.84
2016-06-09T05:30:24.138Z,22.81
2016-06-09T05:31:24.125Z,22.84
2016-06-09T05:32:24.113Z,22.81
2016-06-09T05:33:24.100Z,22.81
2016-06-09T05:34:24.103Z,22.82
2016-06-09T05:35:24.544Z,22.86
2016-06-09T05:36:24.063Z,22.81
2016-06-09T05:37:24.050Z,22.84
2016-06-09T05:38:24.037Z,22.85
2016-06-09T05:39:24.040Z,22.84
2016-06-09T05:40:24.013Z,22.78
2016-06-09T05:41:24.000Z,22.85
2016-06-09T05:42:23.987Z,22.76
2016-06-09T05:43:23.975Z,22.82
2016-06-09T05:44:23.961Z,22.86
2016-06-09T05:45:23.950Z,22.82
2016-06-09T05:46:23.936Z,22.81
2016-06-09T05:47:23.924Z,22.78
2016-06-09T05:48:23.912Z,22.78
2016-06-09T05:49:23.899Z,22.78
2016-06-09T05:50:23.886Z,22.78
2016-06-09T05:51:23.874Z,22.84
2016-06-09T05:52:23.861Z,22.81
2016-06-09T05:53:23.692Z,22.82
2016-06-09T05:54:23.883Z,22.85
2016-06-09T05:55:23.809Z,22.86
2016-06-09T05:56:23.796Z,22.88
2016-06-09T05:57:23.798Z,22.93
2016-06-09T05:58:23.771Z,22.93
2016-06-09T05:59:23.758Z,23.01
2016-06-09T06:00:23.855Z,23.04
2016-06-09T06:01:23.764Z,23.01
2016-06-09T06:02:23.721Z,23.01
2016-06-09T06:03:23.708Z,23.01
2016-06-09T06:04:24.571Z,22.94
2016-06-09T06:05:23.917Z,22.99
2016-06-09T06:06:23.685Z,23
2016-06-09T06:07:23.657Z,22.99
2016-06-09T06:08:23.848Z,23
2016-06-09T06:09:23.648Z,23.01
2016-06-09T06:10:23.620Z,22.97
2016-06-09T06:11:23.608Z,23.11
2016-06-09T06:12:23.595Z,23.04
2016-06-09T06:13:23.582Z,23.03
2016-06-09T06:14:23.570Z,23.16
2016-06-09T06:15:23.557Z,23.04
2016-06-09T06:16:23.888Z,22.99
2016-06-09T06:17:23.548Z,23.04
2016-06-09T06:18:23.519Z,23.03
2016-06-09T06:19:23.508Z,23.03
2016-06-09T06:20:24.104Z,23.12
2016-06-09T06:21:23.482Z,23.18
2016-06-09T06:22:23.470Z,23.01
2016-06-09T06:23:23.457Z,22.99
2016-06-09T06:24:23.898Z,23.12
2016-06-09T06:25:23.432Z,23.12
2016-06-09T06:26:23.419Z,23
2016-06-09T06:27:23.407Z,23.06
2016-06-09T06:28:23.394Z,23.06
2016-06-09T06:29:23.366Z,23.12
2016-06-09T06:30:23.354Z,23.06
2016-06-09T06:31:23.341Z,23.12
2016-06-09T06:32:23.937Z,23.07
2016-06-09T06:33:23.315Z,23.12
2016-06-09T06:34:23.147Z,23.09
2016-06-09T06:35:23.337Z,23.14
2016-06-09T06:36:23.278Z,23.11
2016-06-09T06:37:23.266Z,23.16
2016-06-09T06:38:23.253Z,23.09
2016-06-09T06:39:23.241Z,23.15
2016-06-09T06:40:23.181Z,23.12
2016-06-09T06:41:23.215Z,23.06
2016-06-09T06:42:23.203Z,23.14
2016-06-09T06:43:23.190Z,23.16
2016-06-09T06:44:23.178Z,23.21
2016-06-09T06:45:23.165Z,23.25
2016-06-09T06:46:23.152Z,23.23
2016-06-09T06:47:23.140Z,23.23
2016-06-09T06:48:23.175Z,23.26
2016-06-09T06:49:23.115Z,23.26
2016-06-09T06:50:24.306Z,23.38
2016-06-09T06:51:23.090Z,23.32
2016-06-09T06:52:23.076Z,23.37
2016-06-09T06:53:23.080Z,23.39
2016-06-09T06:54:23.052Z,23.39
2016-06-09T06:55:23.040Z,23.35
2016-06-09T06:56:23.230Z,23.42
2016-06-09T06:57:23.030Z,23.42
2016-06-09T06:58:23.002Z,23.37
2016-06-09T06:59:22.990Z,23.42
2016-06-09T07:00:22.977Z,23.42
2016-06-09T07:01:22.964Z,23.35
2016-06-09T07:02:22.951Z,23.35
2016-06-09T07:03:22.940Z,23.39
2016-06-09T07:04:23.224Z,23.42
2016-06-09T07:05:22.913Z,23.47
2016-06-09T07:06:22.886Z,23.41
2016-06-09T07:07:22.873Z,23.44
2016-06-09T07:08:22.876Z,23.45
2016-06-09T07:09:22.864Z,23.41
2016-06-09T07:10:22.867Z,23.42
2016-06-09T07:11:22.683Z,23.41
2016-06-09T07:12:23.279Z,23.39
2016-06-09T07:13:22.813Z,23.41
2016-06-09T07:14:22.801Z,23.37
2016-06-09T07:15:22.789Z,23.38
2016-06-09T07:16:22.760Z,23.34
2016-06-09T07:17:22.764Z,23.39
2016-06-09T07:18:22.594Z,23.37
2016-06-09T07:19:22.739Z,23.39
2016-06-09T07:20:24.023Z,23.41
2016-06-09T07:21:22.713Z,23.42
2016-06-09T07:22:22.544Z,23.41
2016-06-09T07:23:22.688Z,23.37
2016-06-09T07:24:22.660Z,23.39
2016-06-09T07:25:22.663Z,23.39
2016-06-09T07:26:22.636Z,23.42
2016-06-09T07:27:22.873Z,23.39
2016-06-09T07:28:23.251Z,23.47
2016-06-09T07:29:22.597Z,23.47
2016-06-09T07:30:22.444Z,23.42
2016-06-09T07:31:22.604Z,23.5
2016-06-09T07:32:22.560Z,23.45
2016-06-09T07:33:22.547Z,23.42
2016-06-09T07:34:22.549Z,23.5
2016-06-09T07:35:22.928Z,23.47
2016-06-09T07:36:22.509Z,23.49
2016-06-09T07:37:22.497Z,23.44
2016-06-09T07:38:22.500Z,23.45
2016-06-09T07:39:22.487Z,23.5
2016-06-09T07:40:22.474Z,23.5
2016-06-09T07:41:22.446Z,23.45
2016-06-09T07:42:22.434Z,23.47
2016-06-09T07:43:22.938Z,23.5
2016-06-09T07:44:22.408Z,23.44
2016-06-09T07:45:22.397Z,23.5
2016-06-09T07:46:22.400Z,23.47
2016-06-09T07:47:22.215Z,23.47
2016-06-09T07:48:22.359Z,23.49
2016-06-09T07:49:22.346Z,23.49
2016-06-09T07:50:22.802Z,23.47
2016-06-09T07:51:22.930Z,23.5
2016-06-09T07:52:22.309Z,23.49
2016-06-09T07:53:22.139Z,23.39
2016-06-09T07:54:22.283Z,23.42
2016-06-09T07:55:22.114Z,23.52
2016-06-09T07:56:22.259Z,23.53
2016-06-09T07:57:22.246Z,23.59
2016-06-09T07:58:22.234Z,23.57
2016-06-09T07:59:22.923Z,23.59
2016-06-09T08:00:22.052Z,23.57
2016-06-09T08:01:22.196Z,23.57
2016-06-09T08:02:22.183Z,23.56
2016-06-09T08:03:22.170Z,23.6
2016-06-09T08:04:22.158Z,23.63
2016-06-09T08:05:22.161Z,23.59
2016-06-09T08:06:22.134Z,23.62
2016-06-09T08:07:22.214Z,23.6
2016-06-09T08:08:22.108Z,23.62
2016-06-09T08:09:22.096Z,23.59
2016-06-09T08:10:22.098Z,23.5
2016-06-09T08:11:22.070Z,23.57
2016-06-09T08:12:22.058Z,23.59
2016-06-09T08:13:22.044Z,23.54
2016-06-09T08:14:22.033Z,23.54
2016-06-09T08:15:22.222Z,23.63
2016-06-09T08:16:22.007Z,23.57
2016-06-09T08:17:21.995Z,23.62
2016-06-09T08:18:21.966Z,23.63
2016-06-09T08:19:21.969Z,23.62
2016-06-09T08:20:22.364Z,23.63
2016-06-09T08:21:21.944Z,23.64
2016-06-09T08:22:21.933Z,23.59
2016-06-09T08:23:22.263Z,23.57
2016-06-09T08:24:21.907Z,23.67
2016-06-09T08:25:21.897Z,23.59
2016-06-09T08:26:21.910Z,23.6
2016-06-09T08:27:21.956Z,23.6
2016-06-09T08:28:21.986Z,23.62
2016-06-09T08:29:22.002Z,23.62
2016-06-09T08:30:22.108Z,23.62
2016-06-09T08:31:22.485Z,23.64
2016-06-09T08:32:22.083Z,23.53
2016-06-09T08:33:22.085Z,23.6
2016-06-09T08:34:22.119Z,23.59
2016-06-09T08:35:22.683Z,23.62
2016-06-09T08:36:22.427Z,23.57
2016-06-09T08:37:22.045Z,23.63
2016-06-09T08:38:22.366Z,23.6
2016-06-09T08:39:22.030Z,23.53
2016-06-09T08:40:22.022Z,23.6
2016-06-09T08:41:21.996Z,23.6
2016-06-09T08:42:22.002Z,23.54
2016-06-09T08:43:21.991Z,23.64
2016-06-09T08:44:21.981Z,23.68
2016-06-09T08:45:21.954Z,23.6
2016-06-09T08:46:22.208Z,23.69
2016-06-09T08:47:21.930Z,23.6
2016-06-09T08:48:21.950Z,23.64
2016-06-09T08:49:21.923Z,23.67
2016-06-09T08:50:21.770Z,23.63
2016-06-09T08:51:21.898Z,23.68
2016-06-09T08:52:21.886Z,23.63
2016-06-09T08:53:21.890Z,23.67
2016-06-09T08:54:22.222Z,23.64
2016-06-09T08:55:21.694Z,23.64
2016-06-09T08:56:21.838Z,23.67
2016-06-09T08:57:21.825Z,23.67
2016-06-09T08:58:21.813Z,23.62
2016-06-09T08:59:21.800Z,23.69
2016-06-09T09:00:21.631Z,23.67
2016-06-09T09:01:21.602Z,23.64
2016-06-09T09:02:22.262Z,23.69
2016-06-09T09:03:21.749Z,23.77
2016-06-09T09:04:21.736Z,23.68
2016-06-09T09:05:21.725Z,23.68
2016-06-09T09:06:21.603Z,23.72
2016-06-09T09:07:21.684Z,23.67
2016-06-09T09:08:21.687Z,23.67
2016-06-09T09:09:21.674Z,23.64
2016-06-09T09:10:22.255Z,23.68
2016-06-09T09:11:21.650Z,23.68
2016-06-09T09:12:21.652Z,23.63
2016-06-09T09:13:21.640Z,23.71
2016-06-09T09:14:21.612Z,23.75
2016-06-09T09:15:21.599Z,23.64
2016-06-09T09:16:21.445Z,23.74
2016-06-09T09:17:21.402Z,23.78
2016-06-09T09:18:22.265Z,23.74
2016-06-09T09:19:21.549Z,23.77
2016-06-09T09:20:22.239Z,23.68
2016-06-09T09:21:21.946Z,23.38
2016-06-09T09:22:21.355Z,23.14
2016-06-09T09:23:21.498Z,22.86
2016-06-09T09:24:21.486Z,22.67
2016-06-09T09:25:21.473Z,22.59
2016-06-09T09:26:22.304Z,22.54
2016-06-09T09:27:21.448Z,22.61
2016-06-09T09:28:21.436Z,22.82
2016-06-09T09:29:21.423Z,23.03
2016-06-09T09:30:21.394Z,23.06
2016-06-09T09:31:21.227Z,23.22
2016-06-09T09:32:21.385Z,23.38
2016-06-09T09:33:21.372Z,23.41
2016-06-09T09:34:21.548Z,23.5
2016-06-09T09:35:21.473Z,23.39
2016-06-09T09:36:21.632Z,23.57
2016-06-09T09:37:21.323Z,23.52
2016-06-09T09:38:21.139Z,23.57
2016-06-09T09:39:21.282Z,23.62
2016-06-09T09:40:21.269Z,23.56
2016-06-09T09:41:21.257Z,23.62
2016-06-09T09:42:21.386Z,23.62
2016-06-09T09:43:21.247Z,23.59
2016-06-09T09:44:21.235Z,23.62
2016-06-09T09:45:21.270Z,23.59
2016-06-09T09:46:21.194Z,23.64
2016-06-09T09:47:21.182Z,23.59
2016-06-09T09:48:21.184Z,23.64
2016-06-09T09:49:21.157Z,23.63
2016-06-09T09:50:21.566Z,23.57
2016-06-09T09:51:20.992Z,23.69
2016-06-09T09:52:21.135Z,23.6
2016-06-09T09:53:21.122Z,23.67
2016-06-09T09:54:21.109Z,23.6
2016-06-09T09:55:21.082Z,23.64
2016-06-09T09:56:20.913Z,23.74
2016-06-09T09:57:21.087Z,23.67
2016-06-09T09:58:21.544Z,23.68
2016-06-09T09:59:21.046Z,23.69
2016-06-09T10:00:21.019Z,23.63
2016-06-09T10:01:21.022Z,23.68
2016-06-09T10:02:20.993Z,23.69
2016-06-09T10:03:20.996Z,23.69
2016-06-09T10:04:20.968Z,23.63
2016-06-09T10:05:21.534Z,23.63
2016-06-09T10:06:20.974Z,23.71
2016-06-09T10:07:20.962Z,23.63
2016-06-09T10:08:20.933Z,23.68
2016-06-09T10:09:20.922Z,23.64
2016-06-09T10:10:20.908Z,23.67
2016-06-09T10:11:20.881Z,23.68
2016-06-09T10:12:20.884Z,23.79
2016-06-09T10:13:20.856Z,23.68
2016-06-09T10:14:20.843Z,23.77
2016-06-09T10:15:20.674Z,23.71
2016-06-09T10:16:20.833Z,23.69
2016-06-09T10:17:20.821Z,23.77
2016-06-09T10:18:20.792Z,23.68
2016-06-09T10:19:20.780Z,23.77
2016-06-09T10:20:21.533Z,23.67
2016-06-09T10:21:20.771Z,23.78
2016-06-09T10:22:20.758Z,23.78
2016-06-09T10:23:20.730Z,23.77
2016-06-09T10:24:20.718Z,23.78
2016-06-09T10:25:20.720Z,23.68
2016-06-09T10:26:20.707Z,23.74
2016-06-09T10:27:20.695Z,23.72
2016-06-09T10:28:20.667Z,23.78
2016-06-09T10:29:20.670Z,23.78
2016-06-09T10:30:20.658Z,23.82
2016-06-09T10:31:20.646Z,23.68
2016-06-09T10:32:20.632Z,23.78
2016-06-09T10:33:20.620Z,23.69
2016-06-09T10:34:20.607Z,23.75
2016-06-09T10:35:20.594Z,23.68
2016-06-09T10:36:20.286Z,23.34
2016-06-09T10:37:20.569Z,23.12
2016-06-09T10:38:20.557Z,22.79
2016-06-09T10:39:20.653Z,22.57
2016-06-09T10:40:20.532Z,22.45
2016-06-09T10:41:20.520Z,22.48
2016-06-09T10:42:20.507Z,22.35
2016-06-09T10:43:20.494Z,22.2
2016-06-09T10:44:20.482Z,22.19
2016-06-09T10:45:20.454Z,22.19
2016-06-09T10:46:20.473Z,22.26
2016-06-09T10:47:20.647Z,22.45
2016-06-09T10:48:20.431Z,22.7
2016-06-09T10:49:20.420Z,22.89
2016-06-09T10:50:20.406Z,23.11
2016-06-09T10:51:20.238Z,23.11
2016-06-09T10:52:20.366Z,23.26
2016-06-09T10:53:20.354Z,23.25
2016-06-09T10:54:20.341Z,23.39
2016-06-09T10:55:20.640Z,23.38
2016-06-09T10:56:20.331Z,23.45
2016-06-09T10:57:20.303Z,23.49
2016-06-09T10:58:20.290Z,23.49
2016-06-09T10:59:20.278Z,23.49
2016-06-09T11:00:20.266Z,23.52
2016-06-09T11:01:27.909Z,23.6
2016-06-09T11:02:20.241Z,23.56
2016-06-09T11:03:20.649Z,23.52
2016-06-09T11:04:20.216Z,23.56
2016-06-09T11:05:20.219Z,23.54
2016-06-09T11:06:20.627Z,23.49
2016-06-09T11:07:20.037Z,23.54
2016-06-09T11:08:20.165Z,23.6
2016-06-09T11:09:20.168Z,23.63
2016-06-09T11:10:19.999Z,23.56
2016-06-09T11:11:20.690Z,23.57
2016-06-09T11:12:20.115Z,23.62
2016-06-09T11:13:20.118Z,23.54
2016-06-09T11:14:19.949Z,23.57
2016-06-09T11:15:20.077Z,23.54
2016-06-09T11:16:20.064Z,23.59
2016-06-09T11:17:20.052Z,23.67
2016-06-09T11:18:20.039Z,23.63
2016-06-09T11:19:20.668Z,23.56
2016-06-09T11:20:20.014Z,23.56
2016-06-09T11:21:19.908Z,23.69
2016-06-09T11:22:19.989Z,23.68
2016-06-09T11:23:19.821Z,23.69
2016-06-09T11:24:19.980Z,23.64
2016-06-09T11:25:19.998Z,23.68
2016-06-09T11:26:20.173Z,23.67
2016-06-09T11:27:19.973Z,23.64
2016-06-09T11:28:19.930Z,23.67
2016-06-09T11:29:19.901Z,23.67
2016-06-09T11:30:19.905Z,23.67
2016-06-09T11:31:19.876Z,23.67
2016-06-09T11:32:19.879Z,23.64
2016-06-09T11:33:19.852Z,23.6
2016-06-09T11:34:19.855Z,23.68
2016-06-09T11:35:19.997Z,23.67
2016-06-09T11:36:20.267Z,23.69
2016-06-09T11:37:19.801Z,23.68
2016-06-09T11:38:19.788Z,23.69
2016-06-09T11:39:19.776Z,23.68
2016-06-09T11:40:19.763Z,23.62
2016-06-09T11:41:19.767Z,23.68
2016-06-09T11:42:19.738Z,23.67
2016-06-09T11:43:19.976Z,23.69
2016-06-09T11:44:19.714Z,23.69
2016-06-09T11:45:19.717Z,23.59
2016-06-09T11:46:19.688Z,23.62
2016-06-09T11:47:19.676Z,23.57
2016-06-09T11:48:19.663Z,23.6
2016-06-09T11:49:19.665Z,23.63
2016-06-09T11:50:19.482Z,23.64
2016-06-09T11:51:19.969Z,23.59
2016-06-09T11:52:19.613Z,23.59
2016-06-09T11:53:19.600Z,23.54
2016-06-09T11:54:19.588Z,23.59
2016-06-09T11:55:19.575Z,23.59
2016-06-09T11:56:19.563Z,23.67
2016-06-09T11:57:19.550Z,23.67
2016-06-09T11:58:19.632Z,23.62
2016-06-09T11:59:20.025Z,23.54
2016-06-09T12:00:19.355Z,23.53
2016-06-09T12:01:19.500Z,23.62
2016-06-09T12:02:19.487Z,23.59
2016-06-09T12:03:19.319Z,23.63
2016-06-09T12:04:19.306Z,23.68
2016-06-09T12:05:19.450Z,23.71
2016-06-09T12:06:19.515Z,23.6
2016-06-09T12:07:20.049Z,23.67
2016-06-09T12:08:19.412Z,23.62
2016-06-09T12:09:19.399Z,23.64
2016-06-09T12:10:19.386Z,23.69
2016-06-09T12:11:19.219Z,23.68
2016-06-09T12:12:19.361Z,23.68
2016-06-09T12:13:19.380Z,23.69
2016-06-09T12:14:19.633Z,23.72
2016-06-09T12:15:19.324Z,23.71
2016-06-09T12:16:19.312Z,23.75
2016-06-09T12:17:19.299Z,23.64
2016-06-09T12:18:19.130Z,23.77
2016-06-09T12:19:19.274Z,23.78
2016-06-09T12:20:19.261Z,23.72
2016-06-09T12:21:19.108Z,23.82
2016-06-09T12:22:19.689Z,23.78
2016-06-09T12:23:19.239Z,23.77
2016-06-09T12:24:19.212Z,23.81
2016-06-09T12:25:19.042Z,23.57
2016-06-09T12:26:19.186Z,22.66
2016-06-09T12:27:19.189Z,21.89
2016-06-09T12:28:19.176Z,21.11
2016-06-09T12:29:19.164Z,20.82
2016-06-09T12:30:19.683Z,20.61
2016-06-09T12:31:19.123Z,20.81
2016-06-09T12:32:19.111Z,20.35
2016-06-09T12:33:19.098Z,20.37
2016-06-09T12:34:19.085Z,20.79
2016-06-09T12:35:18.917Z,20.96
2016-06-09T12:36:19.796Z,21.26
2016-06-09T12:37:20.205Z,21.33
2016-06-09T12:38:19.692Z,21.43
2016-06-09T12:39:19.007Z,21.38
2016-06-09T12:40:19.010Z,21.27
2016-06-09T12:41:18.982Z,21.21
2016-06-09T12:42:18.985Z,21.15
2016-06-09T12:43:18.957Z,21.15
2016-06-09T12:44:18.960Z,21.01
2016-06-09T12:45:18.979Z,20.98
2016-06-09T12:46:18.966Z,21.11
2016-06-09T12:47:18.907Z,21.08
2016-06-09T12:48:18.894Z,21
2016-06-09T12:49:18.881Z,20.96
2016-06-09T12:50:18.870Z,21.01
2016-06-09T12:51:19.279Z,20.94
2016-06-09T12:52:19.031Z,21.01
2016-06-09T12:53:18.831Z,21.01
2016-06-09T12:54:18.959Z,21.06